sensor_id;sensor_type;location;lat;lon;timestamp;temperature;humidity
6355;DHT22;3210;48.708;9.030;2023-09-08T00:01:17;14.60;99.90
6355;DHT22;3210;48.708;9.030;2023-09-08T00:03:44;14.60;99.90
6355;DHT22;3210;48.708;9.030;2023-09-08T00:06:10;14.60;99.90
6355;DHT22;3210;48.708;9.030;2023-09-08T00:08:37;14.60;99.90
6355;DHT22;3210;48.708;9.030;2023-09-08T00:11:04;14.60;99.90
6355;DHT22;3210;48.708;9.030;2023-09-08T00:13:34;14.60;99.90
6355;DHT22;3210;48.708;9.030;2023-09-08T00:16:00;14.50;99.90
6355;DHT22;3210;48.708;9.030;2023-09-08T00:18:27;14.50;99.90
6355;DHT22;3210;48.708;9.030;2023-09-08T00:20:54;14.50;99.90
6355;DHT22;3210;48.708;9.030;2023-09-08T00:23:21;14.50;99.90
6355;DHT22;3210;48.708;9.030;2023-09-08T00:25:49;14.50;99.90
6355;DHT22;3210;48.708;9.030;2023-09-08T00:28:16;14.50;99.90
6355;DHT22;3210;48.708;9.030;2023-09-08T00:30:44;14.50;99.90
6355;DHT22;3210;48.708;9.030;2023-09-08T00:33:11;14.50;99.90
6355;DHT22;3210;48.708;9.030;2023-09-08T00:35:39;14.70;99.90
6355;DHT22;3210;48.708;9.030;2023-09-08T00:38:06;14.60;99.90
6355;DHT22;3210;48.708;9.030;2023-09-08T00:40:32;14.60;99.90
6355;DHT22;3210;48.708;9.030;2023-09-08T00:42:59;14.40;99.90
6355;DHT22;3210;48.708;9.030;2023-09-08T00:45:29;14.40;99.90
6355;DHT22;3210;48.708;9.030;2023-09-08T00:47:57;14.30;99.90
6355;DHT22;3210;48.708;9.030;2023-09-08T00:50:24;14.20;99.90
6355;DHT22;3210;48.708;9.030;2023-09-08T00:52:51;14.30;99.90
6355;DHT22;3210;48.708;9.030;2023-09-08T00:55:18;14.30;99.90
6355;DHT22;3210;48.708;9.030;2023-09-08T00:57:45;14.20;99.90
6355;DHT22;3210;48.708;9.030;2023-09-08T01:00:13;14.20;1.00
6355;DHT22;3210;48.708;9.030;2023-09-08T01:02:40;14.20;1.00
6355;DHT22;3210;48.708;9.030;2023-09-08T01:05:10;14.20;1.00
6355;DHT22;3210;48.708;9.030;2023-09-08T01:07:38;14.10;1.00
6355;DHT22;3210;48.708;9.030;2023-09-08T01:10:05;14.10;1.00
6355;DHT22;3210;48.708;9.030;2023-09-08T01:12:33;14.20;1.00
6355;DHT22;3210;48.708;9.030;2023-09-08T01:15:00;14.20;1.00
6355;DHT22;3210;48.708;9.030;2023-09-08T01:17:27;14.10;1.00
6355;DHT22;3210;48.708;9.030;2023-09-08T01:19:55;14.10;1.00
6355;DHT22;3210;48.708;9.030;2023-09-08T01:22:36;14.10;1.00
6355;DHT22;3210;48.708;9.030;2023-09-08T01:25:13;14.10;1.00
6355;DHT22;3210;48.708;9.030;2023-09-08T01:27:46;14.00;1.00
6355;DHT22;3210;48.708;9.030;2023-09-08T01:30:14;14.00;1.00
6355;DHT22;3210;48.708;9.030;2023-09-08T01:32:43;14.00;1.00
6355;DHT22;3210;48.708;9.030;2023-09-08T01:35:10;13.90;1.00
6355;DHT22;3210;48.708;9.030;2023-09-08T01:37:40;13.90;1.00
6355;DHT22;3210;48.708;9.030;2023-09-08T01:40:08;13.80;1.00
6355;DHT22;3210;48.708;9.030;2023-09-08T01:42:37;13.80;1.00
6355;DHT22;3210;48.708;9.030;2023-09-08T01:45:05;13.90;1.00
6355;DHT22;3210;48.708;9.030;2023-09-08T01:47:32;13.80;1.00
6355;DHT22;3210;48.708;9.030;2023-09-08T01:49:59;13.90;1.00
6355;DHT22;3210;48.708;9.030;2023-09-08T01:52:26;13.90;1.00
6355;DHT22;3210;48.708;9.030;2023-09-08T01:54:52;13.90;1.00
6355;DHT22;3210;48.708;9.030;2023-09-08T01:57:22;13.80;1.00
6355;DHT22;3210;48.708;9.030;2023-09-08T01:59:50;13.80;1.00
6355;DHT22;3210;48.708;9.030;2023-09-08T02:02:17;13.60;1.00
6355;DHT22;3210;48.708;9.030;2023-09-08T02:04:44;13.50;1.00
6355;DHT22;3210;48.708;9.030;2023-09-08T02:07:10;13.60;1.00
6355;DHT22;3210;48.708;9.030;2023-09-08T02:09:38;13.60;1.00
6355;DHT22;3210;48.708;9.030;2023-09-08T02:12:06;13.60;1.00
6355;DHT22;3210;48.708;9.030;2023-09-08T02:14:33;13.60;1.00
6355;DHT22;3210;48.708;9.030;2023-09-08T02:17:01;13.70;1.00
6355;DHT22;3210;48.708;9.030;2023-09-08T02:19:28;13.70;1.00
6355;DHT22;3210;48.708;9.030;2023-09-08T02:21:55;13.60;1.00
6355;DHT22;3210;48.708;9.030;2023-09-08T02:24:22;13.60;1.00
6355;DHT22;3210;48.708;9.030;2023-09-08T02:26:49;13.60;1.00
6355;DHT22;3210;48.708;9.030;2023-09-08T02:29:16;13.60;1.00
6355;DHT22;3210;48.708;9.030;2023-09-08T02:31:43;13.50;1.00
6355;DHT22;3210;48.708;9.030;2023-09-08T02:34:11;13.50;1.00
6355;DHT22;3210;48.708;9.030;2023-09-08T02:36:38;13.40;99.90
6355;DHT22;3210;48.708;9.030;2023-09-08T02:39:05;13.40;1.00
6355;DHT22;3210;48.708;9.030;2023-09-08T02:41:32;13.40;1.00
6355;DHT22;3210;48.708;9.030;2023-09-08T02:43:59;13.40;1.00
6355;DHT22;3210;48.708;9.030;2023-09-08T02:46:26;13.40;1.00
6355;DHT22;3210;48.708;9.030;2023-09-08T02:48:53;13.40;99.90
6355;DHT22;3210;48.708;9.030;2023-09-08T02:51:21;13.40;1.00
6355;DHT22;3210;48.708;9.030;2023-09-08T02:53:48;13.30;1.00
6355;DHT22;3210;48.708;9.030;2023-09-08T02:56:15;13.40;1.00
6355;DHT22;3210;48.708;9.030;2023-09-08T02:58:40;13.30;1.00
6355;DHT22;3210;48.708;9.030;2023-09-08T03:01:11;13.40;1.00
6355;DHT22;3210;48.708;9.030;2023-09-08T03:03:40;13.30;1.00
6355;DHT22;3210;48.708;9.030;2023-09-08T03:06:07;13.30;1.00
6355;DHT22;3210;48.708;9.030;2023-09-08T03:08:35;13.20;1.00
6355;DHT22;3210;48.708;9.030;2023-09-08T03:11:03;13.30;1.00
6355;DHT22;3210;48.708;9.030;2023-09-08T03:13:30;13.20;1.00
6355;DHT22;3210;48.708;9.030;2023-09-08T03:15:58;13.30;1.00
6355;DHT22;3210;48.708;9.030;2023-09-08T03:18:28;13.20;1.00
6355;DHT22;3210;48.708;9.030;2023-09-08T03:20:54;13.20;1.00
6355;DHT22;3210;48.708;9.030;2023-09-08T03:23:21;13.20;1.00
6355;DHT22;3210;48.708;9.030;2023-09-08T03:25:50;13.10;1.00
6355;DHT22;3210;48.708;9.030;2023-09-08T03:28:17;13.10;1.00
6355;DHT22;3210;48.708;9.030;2023-09-08T03:30:43;13.10;1.00
6355;DHT22;3210;48.708;9.030;2023-09-08T03:33:11;13.10;1.00
6355;DHT22;3210;48.708;9.030;2023-09-08T03:35:37;13.00;1.00
6355;DHT22;3210;48.708;9.030;2023-09-08T03:38:04;13.00;1.00
6355;DHT22;3210;48.708;9.030;2023-09-08T03:40:31;13.00;1.00
6355;DHT22;3210;48.708;9.030;2023-09-08T03:43:01;13.10;1.00
6355;DHT22;3210;48.708;9.030;2023-09-08T03:45:28;13.10;1.00
6355;DHT22;3210;48.708;9.030;2023-09-08T03:47:54;13.10;1.00
6355;DHT22;3210;48.708;9.030;2023-09-08T03:50:21;13.00;1.00
6355;DHT22;3210;48.708;9.030;2023-09-08T03:52:48;13.00;1.00
6355;DHT22;3210;48.708;9.030;2023-09-08T03:55:15;13.00;1.00
6355;DHT22;3210;48.708;9.030;2023-09-08T03:57:42;13.00;1.00
6355;DHT22;3210;48.708;9.030;2023-09-08T04:00:11;13.00;1.00
6355;DHT22;3210;48.708;9.030;2023-09-08T04:02:38;13.00;1.00
6355;DHT22;3210;48.708;9.030;2023-09-08T04:05:05;13.00;1.00
6355;DHT22;3210;48.708;9.030;2023-09-08T04:07:32;13.00;1.00
6355;DHT22;3210;48.708;9.030;2023-09-08T04:09:59;12.90;1.00
6355;DHT22;3210;48.708;9.030;2023-09-08T04:12:26;12.80;1.00
6355;DHT22;3210;48.708;9.030;2023-09-08T04:14:53;12.90;1.00
6355;DHT22;3210;48.708;9.030;2023-09-08T04:17:21;12.90;1.00
6355;DHT22;3210;48.708;9.030;2023-09-08T04:19:47;12.90;1.00
6355;DHT22;3210;48.708;9.030;2023-09-08T04:22:14;12.90;1.00
6355;DHT22;3210;48.708;9.030;2023-09-08T04:24:41;12.90;1.00
6355;DHT22;3210;48.708;9.030;2023-09-08T04:27:08;12.90;1.00
6355;DHT22;3210;48.708;9.030;2023-09-08T04:29:35;12.90;1.00
6355;DHT22;3210;48.708;9.030;2023-09-08T04:32:03;12.90;1.00
6355;DHT22;3210;48.708;9.030;2023-09-08T04:34:36;12.80;1.00
6355;DHT22;3210;48.708;9.030;2023-09-08T04:37:03;12.80;19.80
6355;DHT22;3210;48.708;9.030;2023-09-08T04:39:30;12.80;10.20
6355;DHT22;3210;48.708;9.030;2023-09-08T04:41:57;12.90;53.60
6355;DHT22;3210;48.708;9.030;2023-09-08T04:44:24;12.80;99.90
6355;DHT22;3210;48.708;9.030;2023-09-08T04:46:51;12.80;99.90
6355;DHT22;3210;48.708;9.030;2023-09-08T04:49:18;12.70;99.90
6355;DHT22;3210;48.708;9.030;2023-09-08T04:51:46;12.90;99.90
6355;DHT22;3210;48.708;9.030;2023-09-08T04:54:12;12.80;99.90
6355;DHT22;3210;48.708;9.030;2023-09-08T04:56:39;12.80;99.90
6355;DHT22;3210;48.708;9.030;2023-09-08T04:59:06;12.90;99.90
6355;DHT22;3210;48.708;9.030;2023-09-08T05:01:33;12.90;99.90
6355;DHT22;3210;48.708;9.030;2023-09-08T05:04:03;12.90;99.90
6355;DHT22;3210;48.708;9.030;2023-09-08T05:06:29;12.90;77.30
6355;DHT22;3210;48.708;9.030;2023-09-08T05:08:58;12.80;22.60
6355;DHT22;3210;48.708;9.030;2023-09-08T05:11:25;12.90;16.20
6355;DHT22;3210;48.708;9.030;2023-09-08T05:13:51;13.00;22.50
6355;DHT22;3210;48.708;9.030;2023-09-08T05:16:18;12.90;33.70
6355;DHT22;3210;48.708;9.030;2023-09-08T05:18:51;13.00;80.90
6355;DHT22;3210;48.708;9.030;2023-09-08T05:21:18;13.00;72.20
6355;DHT22;3210;48.708;9.030;2023-09-08T05:23:44;13.00;98.50
6355;DHT22;3210;48.708;9.030;2023-09-08T05:26:13;13.10;99.90
6355;DHT22;3210;48.708;9.030;2023-09-08T05:28:39;13.20;99.90
6355;DHT22;3210;48.708;9.030;2023-09-08T05:31:08;13.30;99.90
6355;DHT22;3210;48.708;9.030;2023-09-08T05:33:35;13.40;99.90
6355;DHT22;3210;48.708;9.030;2023-09-08T05:36:02;13.40;99.90
6355;DHT22;3210;48.708;9.030;2023-09-08T05:38:28;13.50;99.90
6355;DHT22;3210;48.708;9.030;2023-09-08T05:40:56;13.50;92.20
6355;DHT22;3210;48.708;9.030;2023-09-08T05:43:25;13.60;28.10
6355;DHT22;3210;48.708;9.030;2023-09-08T05:45:52;13.70;1.00
6355;DHT22;3210;48.708;9.030;2023-09-08T05:48:19;13.70;1.00
6355;DHT22;3210;48.708;9.030;2023-09-08T05:50:45;13.70;1.00
6355;DHT22;3210;48.708;9.030;2023-09-08T05:53:12;13.90;1.00
6355;DHT22;3210;48.708;9.030;2023-09-08T05:55:45;14.00;1.00
6355;DHT22;3210;48.708;9.030;2023-09-08T05:58:12;14.10;1.00
6355;DHT22;3210;48.708;9.030;2023-09-08T06:00:41;14.20;1.00
6355;DHT22;3210;48.708;9.030;2023-09-08T06:03:07;14.30;1.00
6355;DHT22;3210;48.708;9.030;2023-09-08T06:05:34;14.40;1.00
6355;DHT22;3210;48.708;9.030;2023-09-08T06:08:01;14.50;1.00
6355;DHT22;3210;48.708;9.030;2023-09-08T06:10:28;14.60;1.00
6355;DHT22;3210;48.708;9.030;2023-09-08T06:12:56;14.70;1.00
6355;DHT22;3210;48.708;9.030;2023-09-08T06:15:23;14.80;1.00
6355;DHT22;3210;48.708;9.030;2023-09-08T06:17:51;14.90;1.00
6355;DHT22;3210;48.708;9.030;2023-09-08T06:20:18;15.00;1.00
6355;DHT22;3210;48.708;9.030;2023-09-08T06:22:44;15.10;1.00
6355;DHT22;3210;48.708;9.030;2023-09-08T06:25:11;15.10;99.90
6355;DHT22;3210;48.708;9.030;2023-09-08T06:27:38;15.20;99.90
6355;DHT22;3210;48.708;9.030;2023-09-08T06:30:06;15.30;99.90
6355;DHT22;3210;48.708;9.030;2023-09-08T06:32:33;15.40;99.90
6355;DHT22;3210;48.708;9.030;2023-09-08T06:35:01;15.60;99.90
6355;DHT22;3210;48.708;9.030;2023-09-08T06:37:28;15.60;99.90
6355;DHT22;3210;48.708;9.030;2023-09-08T06:39:55;15.70;99.90
6355;DHT22;3210;48.708;9.030;2023-09-08T06:42:22;15.90;99.90
